sensor_id;sensor_type;location;lat;lon;timestamp;pressure;altitude;pressure_sealevel;temperature;humidity
74268;BME280;62638;51.362;12.472;2023-04-24T00:00:18;98835.47;;;13.40;89.29
74268;BME280;62638;51.362;12.472;2023-04-24T00:02:44;98821.13;;;13.33;90.62
74268;BME280;62638;51.362;12.472;2023-04-24T00:05:15;98821.06;;;13.20;92.43
74268;BME280;62638;51.362;12.472;2023-04-24T00:07:41;98813.31;;;13.10;94.56
74268;BME280;62638;51.362;12.472;2023-04-24T00:10:07;98810.06;;;12.94;96.22
74268;BME280;62638;51.362;12.472;2023-04-24T00:12:33;98814.28;;;12.82;97.71
74268;BME280;62638;51.362;12.472;2023-04-24T00:14:58;98803.47;;;12.75;98.49
74268;BME280;62638;51.362;12.472;2023-04-24T00:17:23;98791.78;;;12.61;99.71
74268;BME280;62638;51.362;12.472;2023-04-24T00:19:49;98793.63;;;12.61;99.95
74268;BME280;62638;51.362;12.472;2023-04-24T00:22:16;98787.91;;;12.64;98.39
74268;BME280;62638;51.362;12.472;2023-04-24T00:24:42;98789.28;;;12.60;98.26
74268;BME280;62638;51.362;12.472;2023-04-24T00:27:07;98795.94;;;12.64;97.44
74268;BME280;62638;51.362;12.472;2023-04-24T00:29:32;98792.63;;;12.62;97.76
74268;BME280;62638;51.362;12.472;2023-04-24T00:31:58;98803.22;;;12.70;96.56
74268;BME280;62638;51.362;12.472;2023-04-24T00:34:23;98801.31;;;12.64;97.04
74268;BME280;62638;51.362;12.472;2023-04-24T00:36:48;98809.44;;;12.70;95.84
74268;BME280;62638;51.362;12.472;2023-04-24T00:39:20;98810.25;;;12.71;95.72
74268;BME280;62638;51.362;12.472;2023-04-24T00:41:45;98800.34;;;12.71;95.32
74268;BME280;62638;51.362;12.472;2023-04-24T00:44:11;98804.88;;;12.71;95.42
74268;BME280;62638;51.362;12.472;2023-04-24T00:46:37;98790.59;;;12.64;95.86
74268;BME280;62638;51.362;12.472;2023-04-24T00:49:04;98803.41;;;12.68;96.75
74268;BME280;62638;51.362;12.472;2023-04-24T00:51:29;98804.25;;;12.69;96.66
74268;BME280;62638;51.362;12.472;2023-04-24T00:53:56;98804.44;;;12.67;97.38
74268;BME280;62638;51.362;12.472;2023-04-24T00:56:21;98799.78;;;12.55;97.95
74268;BME280;62638;51.362;12.472;2023-04-24T00:58:47;98815.69;;;12.56;97.99
74268;BME280;62638;51.362;12.472;2023-04-24T01:01:12;98809.81;;;12.46;98.49
74268;BME280;62638;51.362;12.472;2023-04-24T01:03:38;98811.03;;;12.44;98.87
74268;BME280;62638;51.362;12.472;2023-04-24T01:06:04;98800.50;;;12.42;98.96
74268;BME280;62638;51.362;12.472;2023-04-24T01:08:30;98811.22;;;12.42;99.13
74268;BME280;62638;51.362;12.472;2023-04-24T01:10:57;98800.59;;;12.34;99.42
74268;BME280;62638;51.362;12.472;2023-04-24T01:13:23;98807.28;;;12.38;98.30
74268;BME280;62638;51.362;12.472;2023-04-24T01:15:48;98808.16;;;12.45;96.95
74268;BME280;62638;51.362;12.472;2023-04-24T01:18:14;98803.19;;;12.42;96.75
74268;BME280;62638;51.362;12.472;2023-04-24T01:20:41;98803.75;;;12.38;97.40
74268;BME280;62638;51.362;12.472;2023-04-24T01:23:07;98799.56;;;12.35;97.12
74268;BME280;62638;51.362;12.472;2023-04-24T01:25:32;98809.97;;;12.38;96.04
74268;BME280;62638;51.362;12.472;2023-04-24T01:27:58;98810.13;;;12.37;95.82
74268;BME280;62638;51.362;12.472;2023-04-24T01:30:24;98817.16;;;12.38;95.12
74268;BME280;62638;51.362;12.472;2023-04-24T01:32:49;98810.88;;;12.31;95.68
74268;BME280;62638;51.362;12.472;2023-04-24T01:35:15;98812.16;;;12.35;95.55
74268;BME280;62638;51.362;12.472;2023-04-24T01:37:40;98815.63;;;12.28;95.74
74268;BME280;62638;51.362;12.472;2023-04-24T01:40:06;98812.66;;;12.23;95.59
74268;BME280;62638;51.362;12.472;2023-04-24T01:42:32;98813.69;;;12.22;95.83
74268;BME280;62638;51.362;12.472;2023-04-24T01:44:58;98802.91;;;12.16;95.61
74268;BME280;62638;51.362;12.472;2023-04-24T01:47:24;98802.13;;;12.22;95.05
74268;BME280;62638;51.362;12.472;2023-04-24T01:49:50;98799.66;;;12.20;95.31
74268;BME280;62638;51.362;12.472;2023-04-24T01:52:15;98812.41;;;12.18;95.61
74268;BME280;62638;51.362;12.472;2023-04-24T01:54:42;98809.00;;;12.10;95.96
74268;BME280;62638;51.362;12.472;2023-04-24T01:57:08;98806.72;;;12.07;95.98
74268;BME280;62638;51.362;12.472;2023-04-24T01:59:34;98814.38;;;12.10;96.05
74268;BME280;62638;51.362;12.472;2023-04-24T02:01:59;98801.25;;;12.00;96.52
74268;BME280;62638;51.362;12.472;2023-04-24T02:04:24;98799.13;;;11.96;96.43
74268;BME280;62638;51.362;12.472;2023-04-24T02:06:50;98805.97;;;11.98;96.06
74268;BME280;62638;51.362;12.472;2023-04-24T02:09:15;98798.06;;;11.90;96.42
74268;BME280;62638;51.362;12.472;2023-04-24T02:11:41;98805.88;;;11.92;96.65
74268;BME280;62638;51.362;12.472;2023-04-24T02:14:06;98805.25;;;11.90;96.84
74268;BME280;62638;51.362;12.472;2023-04-24T02:16:31;98801.34;;;11.92;96.13
74268;BME280;62638;51.362;12.472;2023-04-24T02:19:01;98804.25;;;11.91;96.45
74268;BME280;62638;51.362;12.472;2023-04-24T02:21:26;98794.16;;;11.93;95.64
74268;BME280;62638;51.362;12.472;2023-04-24T02:23:52;98796.81;;;11.93;95.52
74268;BME280;62638;51.362;12.472;2023-04-24T02:26:17;98794.31;;;11.91;96.05
74268;BME280;62638;51.362;12.472;2023-04-24T02:28:43;98802.75;;;11.88;95.78
74268;BME280;62638;51.362;12.472;2023-04-24T02:31:08;98793.88;;;11.88;95.40
74268;BME280;62638;51.362;12.472;2023-04-24T02:33:34;98807.56;;;11.93;94.70
74268;BME280;62638;51.362;12.472;2023-04-24T02:36:01;98791.84;;;11.90;94.88
74268;BME280;62638;51.362;12.472;2023-04-24T02:38:26;98793.13;;;11.94;94.57
74268;BME280;62638;51.362;12.472;2023-04-24T02:40:51;98795.53;;;11.89;95.18
74268;BME280;62638;51.362;12.472;2023-04-24T02:43:17;98791.28;;;11.79;95.32
74268;BME280;62638;51.362;12.472;2023-04-24T02:45:42;98785.94;;;11.79;95.44
74268;BME280;62638;51.362;12.472;2023-04-24T02:48:07;98785.94;;;11.79;95.11
74268;BME280;62638;51.362;12.472;2023-04-24T02:50:32;98777.63;;;11.74;95.20
74268;BME280;62638;51.362;12.472;2023-04-24T02:52:58;98783.50;;;11.70;95.01
74268;BME280;62638;51.362;12.472;2023-04-24T02:55:23;98781.31;;;11.59;95.25
74268;BME280;62638;51.362;12.472;2023-04-24T02:58:18;98786.66;;;11.59;95.61
74268;BME280;62638;51.362;12.472;2023-04-24T03:00:45;98785.47;;;11.61;94.97
74268;BME280;62638;51.362;12.472;2023-04-24T03:03:10;98785.09;;;11.50;95.64
74268;BME280;62638;51.362;12.472;2023-04-24T03:05:36;98788.06;;;11.55;95.33
74268;BME280;62638;51.362;12.472;2023-04-24T03:08:01;98785.47;;;11.47;95.44
74268;BME280;62638;51.362;12.472;2023-04-24T03:10:26;98797.50;;;11.51;94.73
74268;BME280;62638;51.362;12.472;2023-04-24T03:12:51;98787.88;;;11.42;95.27
74268;BME280;62638;51.362;12.472;2023-04-24T03:15:17;98785.03;;;11.43;95.05
74268;BME280;62638;51.362;12.472;2023-04-24T03:17:42;98794.72;;;11.44;94.25
74268;BME280;62638;51.362;12.472;2023-04-24T03:20:08;98796.09;;;11.40;94.85
74268;BME280;62638;51.362;12.472;2023-04-24T03:22:34;98787.13;;;11.48;93.64
74268;BME280;62638;51.362;12.472;2023-04-24T03:24:59;98793.16;;;11.50;93.49
74268;BME280;62638;51.362;12.472;2023-04-24T03:27:25;98784.38;;;11.41;93.73
74268;BME280;62638;51.362;12.472;2023-04-24T03:29:50;98789.00;;;11.32;94.59
74268;BME280;62638;51.362;12.472;2023-04-24T03:32:19;98783.91;;;11.37;94.06
74268;BME280;62638;51.362;12.472;2023-04-24T03:34:44;98792.31;;;11.49;92.76
74268;BME280;62638;51.362;12.472;2023-04-24T03:37:10;98799.72;;;11.47;92.49
74268;BME280;62638;51.362;12.472;2023-04-24T03:39:35;98795.00;;;11.49;92.43
74268;BME280;62638;51.362;12.472;2023-04-24T03:42:00;98791.28;;;11.35;92.90
74268;BME280;62638;51.362;12.472;2023-04-24T03:44:26;98799.72;;;11.32;93.26
74268;BME280;62638;51.362;12.472;2023-04-24T03:46:51;98805.25;;;11.31;93.51
74268;BME280;62638;51.362;12.472;2023-04-24T03:49:17;98811.25;;;11.33;92.97
74268;BME280;62638;51.362;12.472;2023-04-24T03:51:42;98814.56;;;11.35;92.75
74268;BME280;62638;51.362;12.472;2023-04-24T03:54:07;98809.88;;;11.37;92.36
74268;BME280;62638;51.362;12.472;2023-04-24T03:56:33;98805.34;;;11.37;92.30
74268;BME280;62638;51.362;12.472;2023-04-24T03:58:58;98798.50;;;11.35;91.94
74268;BME280;62638;51.362;12.472;2023-04-24T04:01:23;98807.09;;;11.30;92.32
74268;BME280;62638;51.362;12.472;2023-04-24T04:03:49;98804.78;;;11.27;92.39
74268;BME280;62638;51.362;12.472;2023-04-24T04:06:14;98816.25;;;11.36;92.33
74268;BME280;62638;51.362;12.472;2023-04-24T04:08:40;98808.88;;;11.38;91.56
74268;BME280;62638;51.362;12.472;2023-04-24T04:11:05;98798.16;;;11.38;91.11
74268;BME280;62638;51.362;12.472;2023-04-24T04:13:30;98801.66;;;11.38;91.44
74268;BME280;62638;51.362;12.472;2023-04-24T04:15:56;98800.91;;;11.30;91.61
74268;BME280;62638;51.362;12.472;2023-04-24T04:18:21;98804.41;;;11.30;92.06
74268;BME280;62638;51.362;12.472;2023-04-24T04:20:46;98807.00;;;11.24;92.37
74268;BME280;62638;51.362;12.472;2023-04-24T04:23:11;98807.19;;;11.22;92.91
74268;BME280;62638;51.362;12.472;2023-04-24T04:25:37;98809.03;;;11.22;92.67
74268;BME280;62638;51.362;12.472;2023-04-24T04:28:03;98821.41;;;11.23;93.40
74268;BME280;62638;51.362;12.472;2023-04-24T04:30:28;98817.00;;;11.30;92.69
74268;BME280;62638;51.362;12.472;2023-04-24T04:32:57;98812.44;;;11.30;92.91
74268;BME280;62638;51.362;12.472;2023-04-24T04:35:22;98813.94;;;11.33;93.10
74268;BME280;62638;51.362;12.472;2023-04-24T04:37:47;98815.34;;;11.29;92.92
74268;BME280;62638;51.362;12.472;2023-04-24T04:40:12;98826.06;;;11.29;93.38
74268;BME280;62638;51.362;12.472;2023-04-24T04:42:38;98815.72;;;11.26;93.98
74268;BME280;62638;51.362;12.472;2023-04-24T04:45:08;98809.50;;;11.25;93.68
74268;BME280;62638;51.362;12.472;2023-04-24T04:47:34;98816.16;;;11.29;93.76
74268;BME280;62638;51.362;12.472;2023-04-24T04:50:00;98812.09;;;11.33;93.77
74268;BME280;62638;51.362;12.472;2023-04-24T04:52:25;98802.22;;;11.34;93.44
74268;BME280;62638;51.362;12.472;2023-04-24T04:54:50;98805.91;;;11.33;93.46
74268;BME280;62638;51.362;12.472;2023-04-24T04:57:16;98810.50;;;11.39;93.45
74268;BME280;62638;51.362;12.472;2023-04-24T04:59:41;98812.38;;;11.38;93.73
74268;BME280;62638;51.362;12.472;2023-04-24T05:02:07;98822.72;;;11.42;93.65
74268;BME280;62638;51.362;12.472;2023-04-24T05:04:32;98830.03;;;11.48;93.62
74268;BME280;62638;51.362;12.472;2023-04-24T05:06:57;98818.50;;;11.47;92.82
74268;BME280;62638;51.362;12.472;2023-04-24T05:09:23;98823.31;;;11.52;92.58
74268;BME280;62638;51.362;12.472;2023-04-24T05:11:48;98823.94;;;11.54;92.97
74268;BME280;62638;51.362;12.472;2023-04-24T05:14:13;98828.34;;;11.61;93.27
74268;BME280;62638;51.362;12.472;2023-04-24T05:16:39;98827.09;;;11.72;92.00
74268;BME280;62638;51.362;12.472;2023-04-24T05:19:05;98831.72;;;11.78;91.74
74268;BME280;62638;51.362;12.472;2023-04-24T05:21:30;98827.34;;;11.92;90.79
74268;BME280;62638;51.362;12.472;2023-04-24T05:23:56;98823.72;;;12.14;89.69
74268;BME280;62638;51.362;12.472;2023-04-24T05:26:22;98827.25;;;12.36;89.05
74268;BME280;62638;51.362;12.472;2023-04-24T05:28:48;98835.84;;;12.46;88.24
74268;BME280;62638;51.362;12.472;2023-04-24T05:31:13;98833.84;;;12.33;88.13
74268;BME280;62638;51.362;12.472;2023-04-24T05:33:38;98837.25;;;12.42;88.20
74268;BME280;62638;51.362;12.472;2023-04-24T05:36:04;98834.13;;;12.38;88.22
74268;BME280;62638;51.362;12.472;2023-04-24T05:38:31;98835.41;;;12.42;88.58
74268;BME280;62638;51.362;12.472;2023-04-24T05:40:56;98839.00;;;12.35;87.99
74268;BME280;62638;51.362;12.472;2023-04-24T05:43:21;98830.47;;;12.46;88.13
74268;BME280;62638;51.362;12.472;2023-04-24T05:45:47;98824.78;;;12.55;86.45
74268;BME280;62638;51.362;12.472;2023-04-24T05:48:12;98836.88;;;12.66;86.12
74268;BME280;62638;51.362;12.472;2023-04-24T05:50:37;98838.66;;;12.80;85.55
74268;BME280;62638;51.362;12.472;2023-04-24T05:53:03;98848.00;;;12.84;85.42
74268;BME280;62638;51.362;12.472;2023-04-24T05:55:30;98837.44;;;12.83;85.18
74268;BME280;62638;51.362;12.472;2023-04-24T05:57:56;98845.47;;;13.04;84.38
74268;BME280;62638;51.362;12.472;2023-04-24T06:00:21;98841.25;;;12.95;83.10
74268;BME280;62638;51.362;12.472;2023-04-24T06:02:46;98847.13;;;13.26;82.22
74268;BME280;62638;51.362;12.472;2023-04-24T06:05:12;98845.69;;;13.24;80.98
74268;BME280;62638;51.362;12.472;2023-04-24T06:07:37;98849.25;;;13.31;80.40
74268;BME280;62638;51.362;12.472;2023-04-24T06:10:02;98853.16;;;13.28;80.91
74268;BME280;62638;51.362;12.472;2023-04-24T06:12:28;98847.41;;;13.38;79.62
74268;BME280;62638;51.362;12.472;2023-04-24T06:14:53;98856.88;;;13.27;79.88
74268;BME280;62638;51.362;12.472;2023-04-24T06:17:20;98862.34;;;13.40;80.09
74268;BME280;62638;51.362;12.472;2023-04-24T06:19:45;98861.78;;;13.51;79.62
74268;BME280;62638;51.362;12.472;2023-04-24T06:22:11;98858.50;;;13.49;78.41
74268;BME280;62638;51.362;12.472;2023-04-24T06:24:36;98862.13;;;13.42;79.07
74268;BME280;62638;51.362;12.472;2023-04-24T06:27:01;98863.56;;;13.38;79.38
74268;BME280;62638;51.362;12.472;2023-04-24T06:29:27;98862.69;;;13.31;79.65
74268;BME280;62638;51.362;12.472;2023-04-24T06:31:52;98870.91;;;13.23;79.89
74268;BME280;62638;51.362;12.472;2023-04-24T06:34:18;98869.91;;;13.30;79.83
74268;BME280;62638;51.362;12.472;2023-04-24T06:36:43;98858.28;;;13.23;79.83
74268;BME280;62638;51.362;12.472;2023-04-24T06:39:09;98851.06;;;13.02;79.57
74268;BME280;62638;51.362;12.472;2023-04-24T06:41:34;98859.75;;;13.04;81.13
74268;BME280;62638;51.362;12.472;2023-04-24T06:43:59;98868.78;;;12.97;81.30
74268;BME280;62638;51.362;12.472;2023-04-24T06:46:25;98869.94;;;12.88;82.30
74268;BME280;62638;51.362;12.472;2023-04-24T06:48:53;98869.53;;;12.91;81.82
74268;BME280;62638;51.362;12.472;2023-04-24T06:51:22;98864.69;;;12.80;82.10
74268;BME280;62638;51.362;12.472;2023-04-24T06:53:47;98856.09;;;12.91;81.86
74268;BME280;62638;51.362;12.472;2023-04-24T06:56:12;98858.88;;;12.97;81.70
74268;BME280;62638;51.362;12.472;2023-04-24T06:58:38;98863.28;;;13.05;81.19
74268;BME280;62638;51.362;12.472;2023-04-24T07:01:03;98857.78;;;13.13;80.78
74268;BME280;62638;51.362;12.472;2023-04-24T07:03:28;98849.84;;;13.05;81.17
74268;BME280;62638;51.362;12.472;2023-04-24T07:05:54;98853.06;;;13.15;81.63
74268;BME280;62638;51.362;12.472;2023-04-24T07:08:20;98856.88;;;13.27;81.08
74268;BME280;62638;51.362;12.472;2023-04-24T07:10:47;98851.50;;;13.27;80.67
74268;BME280;62638;51.362;12.472;2023-04-24T07:13:12;98854.81;;;13.29;80.56
74268;BME280;62638;51.362;12.472;2023-04-24T07:15:37;98856.38;;;13.17;80.26
74268;BME280;62638;51.362;12.472;2023-04-24T07:18:02;98856.59;;;13.15;79.62
74268;BME280;62638;51.362;12.472;2023-04-24T07:20:28;98862.19;;;13.21;79.77
74268;BME280;62638;51.362;12.472;2023-04-24T07:22:53;98856.06;;;13.33;79.64
74268;BME280;62638;51.362;12.472;2023-04-24T07:25:19;98864.91;;;13.55;79.15
74268;BME280;62638;51.362;12.472;2023-04-24T07:27:44;98858.91;;;13.87;77.80
74268;BME280;62638;51.362;12.472;2023-04-24T07:30:10;98858.81;;;13.68;77.28
74268;BME280;62638;51.362;12.472;2023-04-24T07:32:35;98854.41;;;13.60;78.67
74268;BME280;62638;51.362;12.472;2023-04-24T07:35:00;98847.66;;;13.71;77.97
74268;BME280;62638;51.362;12.472;2023-04-24T07:37:26;98863.44;;;13.80;76.46
74268;BME280;62638;51.362;12.472;2023-04-24T07:39:51;98858.16;;;14.06;77.31
74268;BME280;62638;51.362;12.472;2023-04-24T07:42:16;98858.03;;;14.15;75.97
74268;BME280;62638;51.362;12.472;2023-04-24T07:44:42;98866.34;;;14.26;75.32
74268;BME280;62638;51.362;12.472;2023-04-24T07:47:07;98864.41;;;14.54;74.15
74268;BME280;62638;51.362;12.472;2023-04-24T07:49:33;98853.06;;;14.85;73.78
74268;BME280;62638;51.362;12.472;2023-04-24T07:52:00;98863.81;;;14.66;72.53
74268;BME280;62638;51.362;12.472;2023-04-24T07:54:26;98861.72;;;14.68;72.09
74268;BME280;62638;51.362;12.472;2023-04-24T07:56:52;98862.41;;;14.22;71.98
74268;BME280;62638;51.362;12.472;2023-04-24T07:59:17;98860.13;;;14.19;73.01
74268;BME280;62638;51.362;12.472;2023-04-24T08:01:42;98856.59;;;14.19;72.37
74268;BME280;62638;51.362;12.472;2023-04-24T08:04:08;98860.63;;;13.95;72.26
74268;BME280;62638;51.362;12.472;2023-04-24T08:06:33;98858.84;;;14.15;71.37
74268;BME280;62638;51.362;12.472;2023-04-24T08:08:59;98860.25;;;14.52;70.86
74268;BME280;62638;51.362;12.472;2023-04-24T08:11:25;98852.84;;;14.20;70.79
74268;BME280;62638;51.362;12.472;2023-04-24T08:13:51;98860.22;;;14.45;71.23
74268;BME280;62638;51.362;12.472;2023-04-24T08:16:16;98855.06;;;14.50;70.89
74268;BME280;62638;51.362;12.472;2023-04-24T08:18:42;98869.59;;;14.49;70.23
74268;BME280;62638;51.362;12.472;2023-04-24T08:21:07;98869.59;;;14.56;70.04
74268;BME280;62638;51.362;12.472;2023-04-24T08:23:32;98871.72;;;14.87;68.47
74268;BME280;62638;51.362;12.472;2023-04-24T08:25:58;98865.91;;;14.77;68.26
74268;BME280;62638;51.362;12.472;2023-04-24T08:28:23;98873.00;;;15.04;68.69
74268;BME280;62638;51.362;12.472;2023-04-24T08:30:48;98873.41;;;14.94;68.54
74268;BME280;62638;51.362;12.472;2023-04-24T08:33:19;98867.19;;;15.14;67.95
74268;BME280;62638;51.362;12.472;2023-04-24T08:35:44;98872.38;;;15.68;66.79
74268;BME280;62638;51.362;12.472;2023-04-24T08:38:09;98873.97;;;15.95;65.55
74268;BME280;62638;51.362;12.472;2023-04-24T08:40:36;98883.38;;;15.73;66.21
74268;BME280;62638;51.362;12.472;2023-04-24T08:43:03;98876.53;;;15.64;65.42
74268;BME280;62638;51.362;12.472;2023-04-24T08:45:29;98875.88;;;15.75;64.53
74268;BME280;62638;51.362;12.472;2023-04-24T08:47:54;98880.47;;;15.74;64.36
74268;BME280;62638;51.362;12.472;2023-04-24T08:50:20;98882.13;;;15.49;63.56
74268;BME280;62638;51.362;12.472;2023-04-24T08:52:47;98874.66;;;15.12;63.49
74268;BME280;62638;51.362;12.472;2023-04-24T08:55:12;98878.16;;;14.86;65.81
74268;BME280;62638;51.362;12.472;2023-04-24T08:57:37;98887.03;;;14.73;66.26
74268;BME280;62638;51.362;12.472;2023-04-24T09:00:05;98890.22;;;15.10;64.18
74268;BME280;62638;51.362;12.472;2023-04-24T09:02:31;98888.31;;;15.89;62.01
74268;BME280;62638;51.362;12.472;2023-04-24T09:04:57;98896.16;;;16.10;60.42
74268;BME280;62638;51.362;12.472;2023-04-24T09:07:24;98900.19;;;16.46;58.78
74268;BME280;62638;51.362;12.472;2023-04-24T09:09:51;98889.78;;;16.49;58.03
74268;BME280;62638;51.362;12.472;2023-04-24T09:12:17;98892.19;;;16.70;58.61
74268;BME280;62638;51.362;12.472;2023-04-24T09:14:44;98879.97;;;16.55;56.35
74268;BME280;62638;51.362;12.472;2023-04-24T09:17:10;98888.53;;;16.45;58.02
74268;BME280;62638;51.362;12.472;2023-04-24T09:19:36;98901.28;;;16.38;58.32
74268;BME280;62638;51.362;12.472;2023-04-24T09:22:05;98895.16;;;16.05;58.69
74268;BME280;62638;51.362;12.472;2023-04-24T09:24:31;98888.34;;;15.82;59.19
74268;BME280;62638;51.362;12.472;2023-04-24T09:26:58;98902.91;;;15.55;60.51
74268;BME280;62638;51.362;12.472;2023-04-24T09:29:29;98897.28;;;15.24;61.66
74268;BME280;62638;51.362;12.472;2023-04-24T09:31:55;98904.31;;;15.12;62.41
74268;BME280;62638;51.362;12.472;2023-04-24T09:34:22;98903.09;;;15.01;63.36
74268;BME280;62638;51.362;12.472;2023-04-24T09:36:48;98904.66;;;14.76;64.86
74268;BME280;62638;51.362;12.472;2023-04-24T09:39:15;98910.06;;;14.76;64.71
74268;BME280;62638;51.362;12.472;2023-04-24T09:41:49;98907.13;;;14.64;65.32
74268;BME280;62638;51.362;12.472;2023-04-24T09:44:19;98903.38;;;14.59;66.04
74268;BME280;62638;51.362;12.472;2023-04-24T09:49:22;98920.03;;;14.82;65.55
74268;BME280;62638;51.362;12.472;2023-04-24T09:51:49;98915.03;;;14.72;63.88
74268;BME280;62638;51.362;12.472;2023-04-24T09:54:15;98926.03;;;14.71;64.07
74268;BME280;62638;51.362;12.472;2023-04-24T09:56:45;98917.16;;;14.83;62.59
74268;BME280;62638;51.362;12.472;2023-04-24T09:59:16;98917.66;;;14.52;60.90
74268;BME280;62638;51.362;12.472;2023-04-24T10:01:42;98916.22;;;14.57;61.58
74268;BME280;62638;51.362;12.472;2023-04-24T10:04:19;98918.59;;;14.86;59.93
74268;BME280;62638;51.362;12.472;2023-04-24T10:06:46;98914.50;;;15.36;58.24
74268;BME280;62638;51.362;12.472;2023-04-24T10:09:12;98919.63;;;16.16;55.67
74268;BME280;62638;51.362;12.472;2023-04-24T10:11:41;98911.25;;;16.38;54.42
74268;BME280;62638;51.362;12.472;2023-04-24T10:14:09;98905.81;;;15.67;55.55
74268;BME280;62638;51.362;12.472;2023-04-24T10:16:35;98924.91;;;15.92;56.27
74268;BME280;62638;51.362;12.472;2023-04-24T10:19:02;98905.31;;;16.73;54.41
74268;BME280;62638;51.362;12.472;2023-04-24T10:21:28;98920.22;;;17.70;51.80
74268;BME280;62638;51.362;12.472;2023-04-24T10:23:53;98909.09;;;17.60;50.61
74268;BME280;62638;51.362;12.472;2023-04-24T10:26:19;98926.00;;;16.42;54.04
74268;BME280;62638;51.362;12.472;2023-04-24T10:28:45;98930.09;;;15.73;55.53
74268;BME280;62638;51.362;12.472;2023-04-24T10:31:12;98928.22;;;15.34;55.22
74268;BME280;62638;51.362;12.472;2023-04-24T10:33:39;98933.63;;;15.48;56.16
74268;BME280;62638;51.362;12.472;2023-04-24T10:36:07;98926.94;;;15.37;56.33
74268;BME280;62638;51.362;12.472;2023-04-24T10:38:34;98927.38;;;15.40;55.42
74268;BME280;62638;51.362;12.472;2023-04-24T10:41:10;98925.75;;;15.53;53.44
74268;BME280;62638;51.362;12.472;2023-04-24T10:43:41;98936.94;;;15.89;51.88
74268;BME280;62638;51.362;12.472;2023-04-24T10:46:08;98930.47;;;16.03;51.39
74268;BME280;62638;51.362;12.472;2023-04-24T10:48:35;98928.22;;;16.58;50.94
74268;BME280;62638;51.362;12.472;2023-04-24T10:51:01;98932.81;;;16.51;50.49
74268;BME280;62638;51.362;12.472;2023-04-24T10:53:30;98938.97;;;16.13;51.52
74268;BME280;62638;51.362;12.472;2023-04-24T10:56:09;98932.03;;;16.88;48.33
74268;BME280;62638;51.362;12.472;2023-04-24T10:58:43;98941.13;;;17.63;47.38
74268;BME280;62638;51.362;12.472;2023-04-24T11:01:30;98938.50;;;17.50;46.12
74268;BME280;62638;51.362;12.472;2023-04-24T11:03:59;98944.03;;;17.86;45.60
74268;BME280;62638;51.362;12.472;2023-04-24T11:06:37;98942.56;;;17.34;45.64
74268;BME280;62638;51.362;12.472;2023-04-24T11:09:08;98952.63;;;16.31;46.75
74268;BME280;62638;51.362;12.472;2023-04-24T11:11:36;98952.25;;;16.21;48.20
74268;BME280;62638;51.362;12.472;2023-04-24T11:14:03;98954.84;;;17.37;45.73
74268;BME280;62638;51.362;12.472;2023-04-24T11:16:31;98935.31;;;17.28;45.08
74268;BME280;62638;51.362;12.472;2023-04-24T11:21:46;98954.28;;;16.39;46.65
74268;BME280;62638;51.362;12.472;2023-04-24T11:26:51;98954.34;;;17.15;45.41
74268;BME280;62638;51.362;12.472;2023-04-24T11:29:19;98947.47;;;16.81;45.21
74268;BME280;62638;51.362;12.472;2023-04-24T11:31:45;98953.53;;;16.70;44.72
74268;BME280;62638;51.362;12.472;2023-04-24T11:34:16;98966.41;;;15.84;45.98
74268;BME280;62638;51.362;12.472;2023-04-24T11:36:46;98956.50;;;17.06;43.59
74268;BME280;62638;51.362;12.472;2023-04-24T11:39:12;98953.22;;;17.60;41.71
74268;BME280;62638;51.362;12.472;2023-04-24T11:41:37;98961.94;;;17.87;40.09
74268;BME280;62638;51.362;12.472;2023-04-24T11:44:06;98974.00;;;17.66;39.52
74268;BME280;62638;51.362;12.472;2023-04-24T11:46:31;98964.31;;;18.02;39.74
74268;BME280;62638;51.362;12.472;2023-04-24T11:48:57;98989.13;;;18.24;41.38
74268;BME280;62638;51.362;12.472;2023-04-24T11:51:25;98975.53;;;18.67;40.40
74268;BME280;62638;51.362;12.472;2023-04-24T11:53:51;98986.56;;;18.47;38.33
74268;BME280;62638;51.362;12.472;2023-04-24T11:56:18;99001.88;;;18.41;38.97
74268;BME280;62638;51.362;12.472;2023-04-24T11:58:45;98984.53;;;17.99;40.31
74268;BME280;62638;51.362;12.472;2023-04-24T12:01:10;98974.13;;;16.71;40.31
74268;BME280;62638;51.362;12.472;2023-04-24T12:03:36;98983.66;;;16.80;41.47
74268;BME280;62638;51.362;12.472;2023-04-24T12:06:08;99004.97;;;16.50;42.56
74268;BME280;62638;51.362;12.472;2023-04-24T12:08:35;98980.84;;;16.55;42.04
74268;BME280;62638;51.362;12.472;2023-04-24T12:11:04;98979.59;;;16.58;42.30
74268;BME280;62638;51.362;12.472;2023-04-24T12:13:32;98980.72;;;16.88;42.11
74268;BME280;62638;51.362;12.472;2023-04-24T12:15:57;98980.72;;;16.88;42.80
74268;BME280;62638;51.362;12.472;2023-04-24T12:18:23;98979.03;;;16.29;42.74
74268;BME280;62638;51.362;12.472;2023-04-24T12:20:49;98984.94;;;15.87;43.87
74268;BME280;62638;51.362;12.472;2023-04-24T12:23:14;98985.50;;;16.15;41.86
74268;BME280;62638;51.362;12.472;2023-04-24T12:25:39;98975.19;;;16.70;41.05
74268;BME280;62638;51.362;12.472;2023-04-24T12:30:33;98987.78;;;16.89;41.67
74268;BME280;62638;51.362;12.472;2023-04-24T12:32:59;98983.78;;;16.41;42.14
74268;BME280;62638;51.362;12.472;2023-04-24T12:35:27;98984.03;;;16.19;44.03
74268;BME280;62638;51.362;12.472;2023-04-24T12:37:53;98984.09;;;16.77;42.83
74268;BME280;62638;51.362;12.472;2023-04-24T12:40:20;98991.91;;;17.67;41.61
74268;BME280;62638;51.362;12.472;2023-04-24T12:42:47;98993.63;;;16.86;41.07
74268;BME280;62638;51.362;12.472;2023-04-24T12:45:13;98974.69;;;16.22;42.63
74268;BME280;62638;51.362;12.472;2023-04-24T12:47:39;98983.78;;;16.41;42.28
74268;BME280;62638;51.362;12.472;2023-04-24T12:50:05;98988.00;;;16.17;42.17
74268;BME280;62638;51.362;12.472;2023-04-24T12:52:31;98992.75;;;16.34;42.49
74268;BME280;62638;51.362;12.472;2023-04-24T12:54:58;98979.91;;;16.10;42.49